createdAt,value
2023-03-11T00:04:58.948Z,1007.7
2023-03-11T00:09:59.003Z,1007.7
2023-03-11T00:14:58.688Z,1007.7
2023-03-11T00:19:59.092Z,1007.7
2023-03-11T00:24:58.912Z,1007.7
2023-03-11T00:29:58.813Z,1007.8
2023-03-11T00:34:58.732Z,1007.9
2023-03-11T00:39:58.914Z,1008.1
2023-03-11T00:44:58.713Z,1008.2
2023-03-11T00:49:58.936Z,1008.2
2023-03-11T00:54:58.826Z,1008.2
2023-03-11T00:59:58.976Z,1008.3
2023-03-11T01:04:58.924Z,1008.3
2023-03-11T01:09:58.662Z,1008.4
2023-03-11T01:14:58.794Z,1008.4
2023-03-11T01:19:58.747Z,1008.5
2023-03-11T01:24:59.249Z,1008.5
2023-03-11T01:29:59.224Z,1008.5
2023-03-11T01:34:58.755Z,1008.5
2023-03-11T01:44:58.810Z,1008.5
2023-03-11T01:49:58.676Z,1008.5
2023-03-11T01:54:58.984Z,1008.6
2023-03-11T01:59:58.730Z,1008.6
2023-03-11T02:04:58.803Z,1008.6
2023-03-11T02:09:58.827Z,1008.6
2023-03-11T02:14:59.004Z,1008.7
2023-03-11T02:19:58.804Z,1008.7
2023-03-11T02:24:58.560Z,1008.8
2023-03-11T02:29:59.638Z,1008.8
2023-03-11T02:34:58.993Z,1008.8
2023-03-11T02:40:27.578Z,1008.7
2023-03-11T02:45:01.748Z,1008.7
2023-03-11T02:49:58.737Z,1008.7
2023-03-11T02:54:58.804Z,1008.7
2023-03-11T02:59:58.644Z,1008.8
2023-03-11T03:04:59.031Z,1008.8
2023-03-11T03:09:58.642Z,1008.8
2023-03-11T03:14:58.850Z,1008.9
2023-03-11T03:19:58.600Z,1009
2023-03-11T03:24:58.535Z,1009.1
2023-03-11T03:29:58.795Z,1009.2
2023-03-11T03:34:58.539Z,1009.2
2023-03-11T03:39:58.876Z,1009.3
2023-03-11T03:44:58.503Z,1009.4
2023-03-11T03:49:58.735Z,1009.4
2023-03-11T03:54:58.554Z,1009.5
2023-03-11T03:59:59.113Z,1009.5
2023-03-11T04:04:58.683Z,1009.6
2023-03-11T04:09:58.912Z,1009.7
2023-03-11T04:14:58.485Z,1009.7
2023-03-11T04:19:58.678Z,1009.6
2023-03-11T04:24:58.851Z,1009.6
2023-03-11T04:29:58.779Z,1009.6
2023-03-11T04:34:58.506Z,1009.6
2023-03-11T04:39:58.483Z,1009.6
2023-03-11T04:44:58.743Z,1009.7
2023-03-11T04:49:58.992Z,1009.8
2023-03-11T04:54:58.538Z,1009.8
2023-03-11T04:59:58.788Z,1009.9
2023-03-11T05:04:58.738Z,1009.8
2023-03-11T05:09:58.777Z,1009.8
2023-03-11T05:14:58.770Z,1009.8
2023-03-11T05:19:58.801Z,1009.9
2023-03-11T05:24:58.546Z,1010
2023-03-11T05:29:58.474Z,1010
2023-03-11T05:34:58.426Z,1010.1
2023-03-11T05:39:58.785Z,1010.1
2023-03-11T05:44:58.558Z,1010.2
2023-03-11T05:49:58.648Z,1010.2
2023-03-11T05:54:58.761Z,1010.3
2023-03-11T05:59:58.541Z,1010.3
2023-03-11T06:04:58.849Z,1010.3
2023-03-11T06:09:58.616Z,1010.3
2023-03-11T06:14:58.550Z,1010.4
2023-03-11T06:19:58.483Z,1010.4
2023-03-11T06:24:58.603Z,1010.5
2023-03-11T06:29:58.465Z,1010.7
2023-03-11T06:34:58.639Z,1010.7
2023-03-11T06:39:58.618Z,1010.8
2023-03-11T06:44:58.517Z,1010.8
2023-03-11T06:49:58.562Z,1010.8
2023-03-11T06:54:58.395Z,1010.7
2023-03-11T06:59:58.672Z,1010.9
2023-03-11T07:04:58.589Z,1011
2023-03-11T07:09:58.744Z,1011
2023-03-11T07:14:58.545Z,1011.1
2023-03-11T07:19:58.703Z,1011.2
2023-03-11T07:24:58.632Z,1011.2
2023-03-11T07:29:58.374Z,1011.2
2023-03-11T07:34:58.560Z,1011.2
2023-03-11T07:39:58.681Z,1011.2
2023-03-11T07:44:58.391Z,1011.3
2023-03-11T07:49:58.592Z,1011.4
2023-03-11T07:54:58.652Z,1011.5
2023-03-11T07:59:58.406Z,1011.5
2023-03-11T08:04:58.336Z,1011.5
2023-03-11T08:09:58.581Z,1011.5
2023-03-11T08:14:58.415Z,1011.6
2023-03-11T08:19:58.721Z,1011.6
2023-03-11T08:24:58.583Z,1011.6
2023-03-11T08:29:58.850Z,1011.8
2023-03-11T08:34:58.633Z,1011.8
2023-03-11T08:39:58.641Z,1011.9
2023-03-11T08:44:58.310Z,1011.9
2023-03-11T08:49:58.242Z,1011.9
2023-03-11T08:54:58.428Z,1011.9
2023-03-11T08:59:58.481Z,1012
2023-03-11T09:04:58.400Z,1012.2
2023-03-11T09:09:58.317Z,1012.1
2023-03-11T09:14:58.267Z,1012.1
2023-03-11T09:19:58.496Z,1012.2
2023-03-11T09:24:58.240Z,1012.2
2023-03-11T09:29:58.530Z,1012.2
2023-03-11T09:34:58.473Z,1012.1
2023-03-11T09:39:58.506Z,1012.1
2023-03-11T09:44:58.497Z,1012.1
2023-03-11T09:49:58.220Z,1012.1
2023-03-11T09:54:58.492Z,1012.1
2023-03-11T10:00:00.631Z,1012.2
2023-03-11T10:05:01.448Z,1012.2
2023-03-11T10:09:58.325Z,1012.2
2023-03-11T10:14:58.164Z,1012.3
2023-03-11T10:19:58.361Z,1012.3
2023-03-11T10:25:02.301Z,1012.3
2023-03-11T10:29:58.362Z,1012.3
2023-03-11T10:34:58.170Z,1012.2
2023-03-11T10:45:17.274Z,1012.2
2023-03-11T10:54:59.597Z,1012.1
2023-03-11T11:00:29.604Z,1012.2
2023-03-11T11:05:05.509Z,1012.3
2023-03-11T11:09:58.370Z,1012.3
2023-03-11T11:14:58.620Z,1012.3
2023-03-11T11:25:36.548Z,1012.3
2023-03-11T11:30:04.329Z,1012.3
2023-03-11T11:34:58.373Z,1012.4
2023-03-11T11:40:10.700Z,1012.3
2023-03-11T11:44:58.051Z,1012.3
2023-03-11T11:49:58.408Z,1012.3
2023-03-11T11:54:58.072Z,1012.3
2023-03-11T11:59:58.117Z,1012.3
2023-03-11T12:05:40.491Z,1012.3
2023-03-11T12:09:58.321Z,1012.2
2023-03-11T12:15:02.104Z,1012.3
2023-03-11T12:20:01.609Z,1012.2
2023-03-11T12:25:01.384Z,1012.1
2023-03-11T12:29:59.324Z,1012.1
2023-03-11T12:34:59.297Z,1012.1
2023-03-11T12:45:05.339Z,1012.1
2023-03-11T12:54:58.037Z,1012.1
2023-03-11T13:00:07.839Z,1012.1
2023-03-11T13:05:27.134Z,1012.1
2023-03-11T13:14:58.969Z,1012.1
2023-03-11T13:20:47.304Z,1012.1
2023-03-11T13:25:05.134Z,1012
2023-03-11T13:30:02.359Z,1012
2023-03-11T13:40:01.083Z,1012.1
2023-03-11T13:45:01.149Z,1012.1
2023-03-11T13:50:06.378Z,1012.1
2023-03-11T13:55:05.123Z,1012.2
2023-03-11T14:00:04.382Z,1012.2
2023-03-11T14:09:58.065Z,1012.2
2023-03-11T14:15:01.206Z,1012.2
2023-03-11T14:19:58.347Z,1012.3
2023-03-11T14:24:57.942Z,1012.3
2023-03-11T14:29:58.656Z,1012.3
2023-03-11T14:34:58.052Z,1012.3
2023-03-11T14:39:58.072Z,1012.3
2023-03-11T14:49:58.107Z,1012.3
2023-03-11T14:54:59.063Z,1012.3
2023-03-11T14:59:58.115Z,1012.3
2023-03-11T15:04:59.510Z,1012.4
2023-03-11T15:09:58.649Z,1012.3
2023-03-11T15:14:59.475Z,1012.4
2023-03-11T15:19:58.213Z,1012.3
2023-03-11T15:24:59.270Z,1012.3
2023-03-11T15:29:58.214Z,1012.2
2023-03-11T15:34:58.144Z,1012.2
2023-03-11T15:39:58.214Z,1012.2
2023-03-11T15:45:13.977Z,1012.2
2023-03-11T15:49:58.110Z,1012.2
2023-03-11T15:54:58.090Z,1012.2
2023-03-11T15:59:58.003Z,1012.1
2023-03-11T16:04:58.157Z,1012.1
2023-03-11T16:09:58.297Z,1012.2
2023-03-11T16:14:58.045Z,1012.1
2023-03-11T16:19:58.110Z,1012.2
2023-03-11T16:24:58.148Z,1012.2
2023-03-11T16:29:57.911Z,1012.2
2023-03-11T16:34:58.196Z,1012.1
2023-03-11T16:39:58.119Z,1012.2
2023-03-11T16:44:58.305Z,1012.2
2023-03-11T16:49:58.030Z,1012.2
2023-03-11T16:54:57.857Z,1012.2
2023-03-11T16:59:58.000Z,1012.2
2023-03-11T17:04:58.193Z,1012.2
2023-03-11T17:09:58.091Z,1012.1
2023-03-11T17:14:58.100Z,1012.2
2023-03-11T17:19:58.267Z,1012.2
2023-03-11T17:24:58.007Z,1012.3
2023-03-11T17:29:58.780Z,1012.3
2023-03-11T17:34:57.919Z,1012.3
2023-03-11T17:39:57.978Z,1012.4
2023-03-11T17:44:58.059Z,1012.4
2023-03-11T17:49:58.184Z,1012.4
2023-03-11T17:54:57.982Z,1012.5
2023-03-11T17:59:57.938Z,1012.5
2023-03-11T18:04:57.814Z,1012.5
2023-03-11T18:09:58.123Z,1012.7
2023-03-11T18:14:57.705Z,1012.7
2023-03-11T18:19:57.840Z,1012.8
2023-03-11T18:24:57.820Z,1012.7
2023-03-11T18:29:58.021Z,1012.7
2023-03-11T18:34:57.998Z,1012.7
2023-03-11T18:39:57.771Z,1012.8
2023-03-11T18:44:58.162Z,1012.9
2023-03-11T18:49:58.006Z,1012.8
2023-03-11T18:54:57.773Z,1012.8
2023-03-11T18:59:57.978Z,1012.8
2023-03-11T19:04:57.956Z,1012.8
2023-03-11T19:09:57.867Z,1012.8
2023-03-11T19:14:57.795Z,1012.8
2023-03-11T19:19:57.924Z,1012.8
2023-03-11T19:24:57.749Z,1012.7
2023-03-11T19:29:57.910Z,1012.7
2023-03-11T19:34:57.914Z,1012.7
2023-03-11T19:39:58.131Z,1012.7
2023-03-11T19:44:57.714Z,1012.7
2023-03-11T19:49:58.087Z,1012.7
2023-03-11T19:54:57.673Z,1012.7
2023-03-11T19:59:58.098Z,1012.7
2023-03-11T20:04:58.177Z,1012.7
2023-03-11T20:10:01.459Z,1012.7
2023-03-11T20:14:58.218Z,1012.8
2023-03-11T20:19:58.189Z,1012.7
2023-03-11T20:24:57.941Z,1012.7
2023-03-11T20:29:57.795Z,1012.7
2023-03-11T20:34:57.763Z,1012.8
2023-03-11T20:39:58.127Z,1012.7
2023-03-11T20:44:57.927Z,1012.7
2023-03-11T20:49:58.169Z,1012.8
2023-03-11T20:54:58.023Z,1012.7
2023-03-11T20:59:57.959Z,1012.7
2023-03-11T21:04:57.837Z,1012.7
2023-03-11T21:09:57.828Z,1012.7
2023-03-11T21:14:57.908Z,1012.6
2023-03-11T21:19:58.053Z,1012.6
2023-03-11T21:24:57.698Z,1012.6
2023-03-11T21:29:57.686Z,1012.6
2023-03-11T21:34:58.412Z,1012.6
2023-03-11T21:39:57.911Z,1012.5
2023-03-11T21:44:57.698Z,1012.5
2023-03-11T21:49:57.768Z,1012.5
2023-03-11T21:54:58.017Z,1012.5
2023-03-11T21:59:57.800Z,1012.5
2023-03-11T22:04:58.185Z,1012.5
2023-03-11T22:09:57.980Z,1012.5
2023-03-11T22:14:58.013Z,1012.5
2023-03-11T22:19:58.042Z,1012.5
2023-03-11T22:24:57.724Z,1012.4
2023-03-11T22:29:57.662Z,1012.4
2023-03-11T22:34:57.569Z,1012.3
2023-03-11T22:39:57.591Z,1012.3
2023-03-11T22:44:57.811Z,1012.2
2023-03-11T22:49:57.625Z,1012.2
2023-03-11T22:54:57.727Z,1012.2
2023-03-11T22:59:57.542Z,1012.2
2023-03-11T23:04:58.013Z,1012.2
2023-03-11T23:09:57.539Z,1012.1
2023-03-11T23:14:57.750Z,1012.1
2023-03-11T23:19:57.683Z,1012
2023-03-11T23:24:57.585Z,1012
2023-03-11T23:29:57.692Z,1012
2023-03-11T23:34:57.544Z,1011.9
2023-03-11T23:39:57.652Z,1011.8
2023-03-11T23:44:57.590Z,1011.8
2023-03-11T23:49:57.905Z,1011.8
2023-03-11T23:54:57.930Z,1011.7
2023-03-11T23:59:57.467Z,1011.7
